Hlavní strana
METAR-TAF:

METAR-TAF

Letiště :

Henderson City-County Airport

Henderson, Kentucky, Spojené státy americké

zeměpisná šířka: 37-49N, zeměpisná délka: 087-41W, výška: 117 m

Aktuální stav počasí

Zpráva byla vytvořena před 30 minutami, v 15:56 UTC
Západoseverozápadní vítr 9 kt
Teplota 14°C
Vlhkost vzduchu 47%
Tlak 1024 hPa
Viditelnost: 16.1 km
Jasno

METAR: KEHR 301556Z AUTO 29009KT 10SM CLR 14/03 A3024 RMK AO2 SLP243 T01440028

Čas: 11:26 (16:26 UTC)


TAF: chybějící

Stav a předpovědi počasí z více než 4 000 letišť (zprávy METAR a TAF).

Červené a žluté tečky na mapě představují dostupné meteorologické stanice.

Když kurzor umístíte na tečku, zobrazí se název stanice.

Pak kliknutím zobrazíte stav a předpověď počasí.

Chcete-li změnit mapu, kliknutím na zelené tlačítko se znaménkem +mapu přiblížíte, kliknutím na zelené tlačítko se znaménkem – mapu oddálíte a kliknutím na zelené šipky přejdete na sousední mapy.


METAR-TAF: